sensor_id;sensor_type;location;lat;lon;timestamp;P1;durP1;ratioP1;P2;durP2;ratioP2
54679;SDS011;40578;53.178;5.846;2023-11-19T00:02:08;45.10;;;11.37;;
54679;SDS011;40578;53.178;5.846;2023-11-19T00:04:36;45.80;;;12.45;;
54679;SDS011;40578;53.178;5.846;2023-11-19T00:07:04;44.50;;;11.57;;
54679;SDS011;40578;53.178;5.846;2023-11-19T00:09:32;46.30;;;10.93;;
54679;SDS011;40578;53.178;5.846;2023-11-19T00:12:03;50.30;;;10.70;;
54679;SDS011;40578;53.178;5.846;2023-11-19T00:14:29;43.38;;;10.88;;
54679;SDS011;40578;53.178;5.846;2023-11-19T00:16:55;49.30;;;10.73;;
54679;SDS011;40578;53.178;5.846;2023-11-19T00:19:21;58.30;;;10.13;;
54679;SDS011;40578;53.178;5.846;2023-11-19T00:21:47;38.53;;;9.70;;
54679;SDS011;40578;53.178;5.846;2023-11-19T00:24:13;35.33;;;9.53;;
54679;SDS011;40578;53.178;5.846;2023-11-19T00:26:41;40.17;;;9.65;;
54679;SDS011;40578;53.178;5.846;2023-11-19T00:29:07;40.60;;;9.80;;
54679;SDS011;40578;53.178;5.846;2023-11-19T00:31:33;44.83;;;9.37;;
54679;SDS011;40578;53.178;5.846;2023-11-19T00:34:00;38.90;;;9.43;;
54679;SDS011;40578;53.178;5.846;2023-11-19T00:36:26;43.63;;;10.57;;
54679;SDS011;40578;53.178;5.846;2023-11-19T00:38:53;43.75;;;9.77;;
54679;SDS011;40578;53.178;5.846;2023-11-19T00:41:19;47.92;;;9.27;;
54679;SDS011;40578;53.178;5.846;2023-11-19T00:43:45;36.50;;;9.35;;
54679;SDS011;40578;53.178;5.846;2023-11-19T00:46:11;41.97;;;9.17;;
54679;SDS011;40578;53.178;5.846;2023-11-19T00:48:37;50.17;;;9.83;;
54679;SDS011;40578;53.178;5.846;2023-11-19T00:51:02;39.80;;;9.27;;
54679;SDS011;40578;53.178;5.846;2023-11-19T00:53:31;37.20;;;8.45;;
54679;SDS011;40578;53.178;5.846;2023-11-19T00:55:59;45.33;;;10.07;;
54679;SDS011;40578;53.178;5.846;2023-11-19T00:58:25;39.97;;;8.90;;
54679;SDS011;40578;53.178;5.846;2023-11-19T01:00:52;45.03;;;9.30;;
54679;SDS011;40578;53.178;5.846;2023-11-19T01:03:17;42.40;;;9.53;;
54679;SDS011;40578;53.178;5.846;2023-11-19T01:05:43;46.33;;;9.17;;
54679;SDS011;40578;53.178;5.846;2023-11-19T01:08:09;47.20;;;9.85;;
54679;SDS011;40578;53.178;5.846;2023-11-19T01:10:38;39.13;;;8.87;;
54679;SDS011;40578;53.178;5.846;2023-11-19T01:13:04;38.22;;;8.60;;
54679;SDS011;40578;53.178;5.846;2023-11-19T01:15:33;36.53;;;8.70;;
54679;SDS011;40578;53.178;5.846;2023-11-19T01:17:58;30.83;;;8.13;;
54679;SDS011;40578;53.178;5.846;2023-11-19T01:20:24;40.27;;;8.30;;
54679;SDS011;40578;53.178;5.846;2023-11-19T01:22:51;41.00;;;8.05;;
54679;SDS011;40578;53.178;5.846;2023-11-19T01:25:17;45.90;;;8.67;;
54679;SDS011;40578;53.178;5.846;2023-11-19T01:27:42;38.40;;;7.63;;
54679;SDS011;40578;53.178;5.846;2023-11-19T01:30:08;47.20;;;8.87;;
54679;SDS011;40578;53.178;5.846;2023-11-19T01:32:37;38.90;;;8.88;;
54679;SDS011;40578;53.178;5.846;2023-11-19T01:35:03;41.50;;;9.53;;
54679;SDS011;40578;53.178;5.846;2023-11-19T01:37:29;41.87;;;8.73;;
54679;SDS011;40578;53.178;5.846;2023-11-19T01:39:57;46.95;;;9.40;;
54679;SDS011;40578;53.178;5.846;2023-11-19T01:42:23;44.67;;;9.73;;
54679;SDS011;40578;53.178;5.846;2023-11-19T01:45:00;38.20;;;8.93;;
54679;SDS011;40578;53.178;5.846;2023-11-19T01:47:30;46.08;;;9.02;;
54679;SDS011;40578;53.178;5.846;2023-11-19T01:49:57;46.28;;;9.93;;
54679;SDS011;40578;53.178;5.846;2023-11-19T01:52:23;40.75;;;9.02;;
54679;SDS011;40578;53.178;5.846;2023-11-19T01:54:51;46.80;;;8.88;;
54679;SDS011;40578;53.178;5.846;2023-11-19T01:57:18;37.35;;;9.80;;
54679;SDS011;40578;53.178;5.846;2023-11-19T01:59:47;49.72;;;9.90;;
54679;SDS011;40578;53.178;5.846;2023-11-19T02:02:13;34.70;;;8.00;;
54679;SDS011;40578;53.178;5.846;2023-11-19T02:04:38;39.67;;;9.10;;
54679;SDS011;40578;53.178;5.846;2023-11-19T02:07:05;38.80;;;8.93;;
54679;SDS011;40578;53.178;5.846;2023-11-19T02:09:31;35.73;;;8.73;;
54679;SDS011;40578;53.178;5.846;2023-11-19T02:11:57;38.23;;;8.00;;
54679;SDS011;40578;53.178;5.846;2023-11-19T02:14:24;47.10;;;8.90;;
54679;SDS011;40578;53.178;5.846;2023-11-19T02:16:51;46.17;;;9.38;;
54679;SDS011;40578;53.178;5.846;2023-11-19T02:19:20;47.80;;;8.40;;
54679;SDS011;40578;53.178;5.846;2023-11-19T02:21:46;52.78;;;8.77;;
54679;SDS011;40578;53.178;5.846;2023-11-19T02:24:12;41.10;;;9.27;;
54679;SDS011;40578;53.178;5.846;2023-11-19T02:29:22;42.22;;;8.20;;
54679;SDS011;40578;53.178;5.846;2023-11-19T02:31:47;44.30;;;8.73;;
54679;SDS011;40578;53.178;5.846;2023-11-19T02:34:13;50.17;;;8.20;;
54679;SDS011;40578;53.178;5.846;2023-11-19T02:36:40;33.00;;;8.27;;
54679;SDS011;40578;53.178;5.846;2023-11-19T02:39:06;44.10;;;7.97;;
54679;SDS011;40578;53.178;5.846;2023-11-19T02:41:35;44.30;;;9.68;;
54679;SDS011;40578;53.178;5.846;2023-11-19T02:44:01;42.73;;;9.03;;
54679;SDS011;40578;53.178;5.846;2023-11-19T02:46:28;41.17;;;7.95;;
54679;SDS011;40578;53.178;5.846;2023-11-19T02:48:53;40.27;;;7.90;;
54679;SDS011;40578;53.178;5.846;2023-11-19T02:51:19;46.87;;;8.97;;
54679;SDS011;40578;53.178;5.846;2023-11-19T02:53:45;38.43;;;8.93;;
54679;SDS011;40578;53.178;5.846;2023-11-19T02:56:13;27.70;;;7.47;;
54679;SDS011;40578;53.178;5.846;2023-11-19T02:58:51;38.92;;;7.22;;
54679;SDS011;40578;53.178;5.846;2023-11-19T03:01:24;48.33;;;8.77;;
54679;SDS011;40578;53.178;5.846;2023-11-19T03:04:00;37.95;;;9.80;;
54679;SDS011;40578;53.178;5.846;2023-11-19T03:06:27;39.38;;;8.57;;
54679;SDS011;40578;53.178;5.846;2023-11-19T03:08:54;33.72;;;8.35;;
54679;SDS011;40578;53.178;5.846;2023-11-19T03:11:20;42.60;;;7.55;;
54679;SDS011;40578;53.178;5.846;2023-11-19T03:13:46;45.30;;;8.93;;
54679;SDS011;40578;53.178;5.846;2023-11-19T03:16:12;38.87;;;8.37;;
54679;SDS011;40578;53.178;5.846;2023-11-19T03:18:38;41.95;;;9.48;;
54679;SDS011;40578;53.178;5.846;2023-11-19T03:21:06;40.05;;;8.65;;
54679;SDS011;40578;53.178;5.846;2023-11-19T03:23:33;40.22;;;9.18;;
54679;SDS011;40578;53.178;5.846;2023-11-19T03:26:00;44.83;;;9.13;;
54679;SDS011;40578;53.178;5.846;2023-11-19T03:28:28;32.75;;;8.63;;
54679;SDS011;40578;53.178;5.846;2023-11-19T03:30:54;33.35;;;8.40;;
54679;SDS011;40578;53.178;5.846;2023-11-19T03:33:20;33.83;;;7.73;;
54679;SDS011;40578;53.178;5.846;2023-11-19T03:35:46;46.53;;;8.73;;
54679;SDS011;40578;53.178;5.846;2023-11-19T03:38:12;43.57;;;8.43;;
54679;SDS011;40578;53.178;5.846;2023-11-19T03:40:38;43.92;;;8.95;;
54679;SDS011;40578;53.178;5.846;2023-11-19T03:43:04;34.33;;;8.65;;
54679;SDS011;40578;53.178;5.846;2023-11-19T03:45:30;35.28;;;7.85;;
54679;SDS011;40578;53.178;5.846;2023-11-19T03:47:57;40.10;;;9.10;;
54679;SDS011;40578;53.178;5.846;2023-11-19T03:50:22;37.10;;;9.18;;
54679;SDS011;40578;53.178;5.846;2023-11-19T03:52:49;44.30;;;8.33;;
54679;SDS011;40578;53.178;5.846;2023-11-19T03:55:14;39.97;;;8.38;;
54679;SDS011;40578;53.178;5.846;2023-11-19T03:57:40;34.07;;;8.70;;
54679;SDS011;40578;53.178;5.846;2023-11-19T04:00:06;44.40;;;9.50;;
54679;SDS011;40578;53.178;5.846;2023-11-19T04:02:38;33.30;;;8.00;;
54679;SDS011;40578;53.178;5.846;2023-11-19T04:05:04;42.75;;;7.78;;
54679;SDS011;40578;53.178;5.846;2023-11-19T04:07:32;45.75;;;8.63;;
54679;SDS011;40578;53.178;5.846;2023-11-19T04:09:59;44.33;;;8.30;;
54679;SDS011;40578;53.178;5.846;2023-11-19T04:12:25;35.83;;;7.80;;
54679;SDS011;40578;53.178;5.846;2023-11-19T04:14:50;42.10;;;7.87;;
54679;SDS011;40578;53.178;5.846;2023-11-19T04:17:16;39.30;;;8.13;;
54679;SDS011;40578;53.178;5.846;2023-11-19T04:19:42;36.67;;;8.27;;
54679;SDS011;40578;53.178;5.846;2023-11-19T04:22:09;37.83;;;8.38;;
54679;SDS011;40578;53.178;5.846;2023-11-19T04:24:35;36.67;;;8.73;;
54679;SDS011;40578;53.178;5.846;2023-11-19T04:27:02;38.38;;;8.38;;
54679;SDS011;40578;53.178;5.846;2023-11-19T04:29:29;35.60;;;8.25;;
54679;SDS011;40578;53.178;5.846;2023-11-19T04:31:56;43.13;;;9.07;;
54679;SDS011;40578;53.178;5.846;2023-11-19T04:34:21;37.33;;;7.60;;
54679;SDS011;40578;53.178;5.846;2023-11-19T04:36:47;42.20;;;9.77;;
54679;SDS011;40578;53.178;5.846;2023-11-19T04:39:13;41.93;;;7.93;;
54679;SDS011;40578;53.178;5.846;2023-11-19T04:41:46;41.85;;;8.30;;
54679;SDS011;40578;53.178;5.846;2023-11-19T04:44:16;41.65;;;7.93;;
54679;SDS011;40578;53.178;5.846;2023-11-19T04:46:42;47.00;;;9.83;;
54679;SDS011;40578;53.178;5.846;2023-11-19T04:49:09;48.35;;;9.27;;
54679;SDS011;40578;53.178;5.846;2023-11-19T04:51:39;46.58;;;9.20;;
54679;SDS011;40578;53.178;5.846;2023-11-19T04:54:09;37.28;;;8.52;;
54679;SDS011;40578;53.178;5.846;2023-11-19T04:56:38;38.28;;;7.97;;
54679;SDS011;40578;53.178;5.846;2023-11-19T04:59:04;38.42;;;7.65;;
54679;SDS011;40578;53.178;5.846;2023-11-19T05:01:33;38.08;;;7.13;;
54679;SDS011;40578;53.178;5.846;2023-11-19T05:03:59;36.05;;;7.95;;
54679;SDS011;40578;53.178;5.846;2023-11-19T05:06:31;42.63;;;7.97;;
54679;SDS011;40578;53.178;5.846;2023-11-19T05:08:58;41.67;;;8.95;;
54679;SDS011;40578;53.178;5.846;2023-11-19T05:11:35;42.92;;;9.48;;
54679;SDS011;40578;53.178;5.846;2023-11-19T05:14:04;40.30;;;8.50;;
54679;SDS011;40578;53.178;5.846;2023-11-19T05:16:30;39.75;;;8.85;;
54679;SDS011;40578;53.178;5.846;2023-11-19T05:18:56;38.58;;;8.75;;
54679;SDS011;40578;53.178;5.846;2023-11-19T05:21:22;41.60;;;8.63;;
54679;SDS011;40578;53.178;5.846;2023-11-19T05:23:48;46.97;;;9.77;;
54679;SDS011;40578;53.178;5.846;2023-11-19T05:26:19;38.85;;;8.40;;
54679;SDS011;40578;53.178;5.846;2023-11-19T05:28:45;33.72;;;6.85;;
54679;SDS011;40578;53.178;5.846;2023-11-19T05:31:11;47.23;;;8.07;;
54679;SDS011;40578;53.178;5.846;2023-11-19T05:33:36;33.47;;;8.40;;
54679;SDS011;40578;53.178;5.846;2023-11-19T05:36:02;40.20;;;8.63;;
54679;SDS011;40578;53.178;5.846;2023-11-19T05:38:29;33.88;;;7.28;;
54679;SDS011;40578;53.178;5.846;2023-11-19T05:40:55;48.50;;;9.25;;
54679;SDS011;40578;53.178;5.846;2023-11-19T05:43:20;35.70;;;8.83;;
54679;SDS011;40578;53.178;5.846;2023-11-19T05:45:46;38.70;;;8.07;;
54679;SDS011;40578;53.178;5.846;2023-11-19T05:48:12;38.92;;;7.97;;
54679;SDS011;40578;53.178;5.846;2023-11-19T05:50:38;34.30;;;7.63;;
54679;SDS011;40578;53.178;5.846;2023-11-19T05:53:04;31.70;;;8.35;;
54679;SDS011;40578;53.178;5.846;2023-11-19T05:55:36;51.17;;;8.48;;
54679;SDS011;40578;53.178;5.846;2023-11-19T05:58:10;43.00;;;8.65;;
54679;SDS011;40578;53.178;5.846;2023-11-19T06:00:37;41.35;;;8.25;;
54679;SDS011;40578;53.178;5.846;2023-11-19T06:03:09;43.55;;;9.43;;
54679;SDS011;40578;53.178;5.846;2023-11-19T06:05:35;37.25;;;8.85;;
54679;SDS011;40578;53.178;5.846;2023-11-19T06:08:00;39.17;;;7.83;;
54679;SDS011;40578;53.178;5.846;2023-11-19T06:10:26;44.53;;;8.87;;
54679;SDS011;40578;53.178;5.846;2023-11-19T06:12:59;47.05;;;8.93;;
54679;SDS011;40578;53.178;5.846;2023-11-19T06:15:25;38.53;;;8.32;;
54679;SDS011;40578;53.178;5.846;2023-11-19T06:17:52;45.58;;;8.93;;
54679;SDS011;40578;53.178;5.846;2023-11-19T06:20:18;35.23;;;8.70;;
54679;SDS011;40578;53.178;5.846;2023-11-19T06:22:45;39.83;;;8.95;;
54679;SDS011;40578;53.178;5.846;2023-11-19T06:25:11;40.75;;;9.50;;
54679;SDS011;40578;53.178;5.846;2023-11-19T06:27:37;39.47;;;9.55;;
54679;SDS011;40578;53.178;5.846;2023-11-19T06:30:03;39.33;;;8.97;;
54679;SDS011;40578;53.178;5.846;2023-11-19T06:32:29;38.67;;;8.93;;
54679;SDS011;40578;53.178;5.846;2023-11-19T06:34:54;52.57;;;10.77;;
54679;SDS011;40578;53.178;5.846;2023-11-19T06:37:24;37.38;;;9.20;;
54679;SDS011;40578;53.178;5.846;2023-11-19T06:39:49;40.93;;;9.87;;
54679;SDS011;40578;53.178;5.846;2023-11-19T06:42:15;35.30;;;8.57;;
54679;SDS011;40578;53.178;5.846;2023-11-19T06:44:41;33.50;;;9.30;;
54679;SDS011;40578;53.178;5.846;2023-11-19T06:47:06;37.23;;;9.87;;
54679;SDS011;40578;53.178;5.846;2023-11-19T06:49:33;30.13;;;7.93;;
54679;SDS011;40578;53.178;5.846;2023-11-19T06:51:58;38.57;;;9.90;;
54679;SDS011;40578;53.178;5.846;2023-11-19T06:54:24;33.23;;;9.03;;
54679;SDS011;40578;53.178;5.846;2023-11-19T06:56:50;37.92;;;9.93;;
54679;SDS011;40578;53.178;5.846;2023-11-19T06:59:16;38.83;;;9.52;;
54679;SDS011;40578;53.178;5.846;2023-11-19T07:01:42;40.47;;;9.97;;
54679;SDS011;40578;53.178;5.846;2023-11-19T07:06:37;37.38;;;9.05;;
54679;SDS011;40578;53.178;5.846;2023-11-19T07:09:06;36.70;;;9.50;;
54679;SDS011;40578;53.178;5.846;2023-11-19T07:11:37;38.90;;;10.38;;
54679;SDS011;40578;53.178;5.846;2023-11-19T07:14:06;35.38;;;10.60;;
54679;SDS011;40578;53.178;5.846;2023-11-19T07:16:33;37.95;;;10.52;;
54679;SDS011;40578;53.178;5.846;2023-11-19T07:19:05;33.47;;;9.30;;
54679;SDS011;40578;53.178;5.846;2023-11-19T07:21:31;34.85;;;11.50;;
54679;SDS011;40578;53.178;5.846;2023-11-19T07:23:58;36.05;;;10.48;;
54679;SDS011;40578;53.178;5.846;2023-11-19T07:26:24;44.10;;;11.50;;
54679;SDS011;40578;53.178;5.846;2023-11-19T07:28:50;33.15;;;10.85;;
54679;SDS011;40578;53.178;5.846;2023-11-19T07:31:16;39.97;;;10.40;;
54679;SDS011;40578;53.178;5.846;2023-11-19T07:33:44;40.75;;;11.35;;
54679;SDS011;40578;53.178;5.846;2023-11-19T07:36:11;30.70;;;10.50;;
54679;SDS011;40578;53.178;5.846;2023-11-19T07:38:37;35.70;;;10.10;;
54679;SDS011;40578;53.178;5.846;2023-11-19T07:41:04;33.88;;;10.63;;
54679;SDS011;40578;53.178;5.846;2023-11-19T07:43:30;38.00;;;10.68;;
54679;SDS011;40578;53.178;5.846;2023-11-19T07:45:56;36.43;;;10.10;;
54679;SDS011;40578;53.178;5.846;2023-11-19T07:48:24;37.65;;;10.70;;
54679;SDS011;40578;53.178;5.846;2023-11-19T07:50:51;38.05;;;10.75;;
54679;SDS011;40578;53.178;5.846;2023-11-19T07:53:18;42.28;;;10.93;;
54679;SDS011;40578;53.178;5.846;2023-11-19T07:55:44;36.15;;;10.98;;
54679;SDS011;40578;53.178;5.846;2023-11-19T07:58:10;37.45;;;11.77;;
54679;SDS011;40578;53.178;5.846;2023-11-19T08:03:03;34.45;;;10.65;;
54679;SDS011;40578;53.178;5.846;2023-11-19T08:05:30;39.28;;;10.30;;
54679;SDS011;40578;53.178;5.846;2023-11-19T08:07:56;42.20;;;11.55;;
54679;SDS011;40578;53.178;5.846;2023-11-19T08:10:23;32.42;;;11.45;;
54679;SDS011;40578;53.178;5.846;2023-11-19T08:12:49;32.03;;;9.50;;
54679;SDS011;40578;53.178;5.846;2023-11-19T08:15:15;37.57;;;11.17;;
54679;SDS011;40578;53.178;5.846;2023-11-19T08:17:43;46.95;;;10.88;;
54679;SDS011;40578;53.178;5.846;2023-11-19T08:20:09;45.97;;;10.90;;
54679;SDS011;40578;53.178;5.846;2023-11-19T08:22:36;33.63;;;10.85;;
54679;SDS011;40578;53.178;5.846;2023-11-19T08:25:04;41.55;;;10.88;;
54679;SDS011;40578;53.178;5.846;2023-11-19T08:27:30;48.22;;;10.98;;
54679;SDS011;40578;53.178;5.846;2023-11-19T08:29:56;41.43;;;10.77;;
54679;SDS011;40578;53.178;5.846;2023-11-19T08:32:23;44.60;;;10.88;;
54679;SDS011;40578;53.178;5.846;2023-11-19T08:34:49;38.70;;;10.75;;
54679;SDS011;40578;53.178;5.846;2023-11-19T08:37:14;44.70;;;11.23;;
54679;SDS011;40578;53.178;5.846;2023-11-19T08:39:40;36.67;;;10.70;;
54679;SDS011;40578;53.178;5.846;2023-11-19T08:42:07;47.53;;;12.38;;
54679;SDS011;40578;53.178;5.846;2023-11-19T08:44:32;39.63;;;11.07;;
54679;SDS011;40578;53.178;5.846;2023-11-19T08:46:58;48.73;;;11.63;;
54679;SDS011;40578;53.178;5.846;2023-11-19T08:49:25;37.07;;;10.43;;
54679;SDS011;40578;53.178;5.846;2023-11-19T08:51:50;40.28;;;11.85;;
54679;SDS011;40578;53.178;5.846;2023-11-19T08:54:16;43.97;;;11.40;;
54679;SDS011;40578;53.178;5.846;2023-11-19T08:56:42;42.47;;;10.63;;
54679;SDS011;40578;53.178;5.846;2023-11-19T08:59:08;43.40;;;10.67;;
54679;SDS011;40578;53.178;5.846;2023-11-19T09:01:34;44.30;;;11.47;;
54679;SDS011;40578;53.178;5.846;2023-11-19T09:03:59;35.17;;;11.17;;
54679;SDS011;40578;53.178;5.846;2023-11-19T09:06:25;36.47;;;10.40;;
54679;SDS011;40578;53.178;5.846;2023-11-19T09:08:51;42.75;;;11.68;;
54679;SDS011;40578;53.178;5.846;2023-11-19T09:11:17;35.77;;;10.73;;
54679;SDS011;40578;53.178;5.846;2023-11-19T09:13:43;35.50;;;8.80;;
54679;SDS011;40578;53.178;5.846;2023-11-19T09:16:11;34.33;;;9.05;;
54679;SDS011;40578;53.178;5.846;2023-11-19T09:18:39;38.58;;;8.07;;
54679;SDS011;40578;53.178;5.846;2023-11-19T09:23:30;41.17;;;8.95;;
54679;SDS011;40578;53.178;5.846;2023-11-19T09:26:00;39.50;;;8.18;;
54679;SDS011;40578;53.178;5.846;2023-11-19T09:28:26;41.90;;;7.90;;
54679;SDS011;40578;53.178;5.846;2023-11-19T09:30:52;45.73;;;7.27;;
54679;SDS011;40578;53.178;5.846;2023-11-19T09:33:17;34.00;;;6.43;;
54679;SDS011;40578;53.178;5.846;2023-11-19T09:35:43;35.87;;;7.23;;
54679;SDS011;40578;53.178;5.846;2023-11-19T09:38:09;35.47;;;6.03;;
54679;SDS011;40578;53.178;5.846;2023-11-19T09:40:35;40.10;;;6.77;;
54679;SDS011;40578;53.178;5.846;2023-11-19T09:45:27;31.63;;;5.53;;
54679;SDS011;40578;53.178;5.846;2023-11-19T09:47:53;28.95;;;6.43;;
54679;SDS011;40578;53.178;5.846;2023-11-19T09:50:22;28.10;;;5.45;;
54679;SDS011;40578;53.178;5.846;2023-11-19T09:52:48;36.75;;;5.70;;
54679;SDS011;40578;53.178;5.846;2023-11-19T09:55:14;36.60;;;6.05;;
54679;SDS011;40578;53.178;5.846;2023-11-19T09:57:40;38.00;;;6.93;;
54679;SDS011;40578;53.178;5.846;2023-11-19T10:00:07;36.20;;;5.90;;
54679;SDS011;40578;53.178;5.846;2023-11-19T10:02:35;31.65;;;6.20;;
54679;SDS011;40578;53.178;5.846;2023-11-19T10:05:03;33.83;;;6.10;;
54679;SDS011;40578;53.178;5.846;2023-11-19T10:07:31;32.40;;;7.63;;
54679;SDS011;40578;53.178;5.846;2023-11-19T10:09:58;34.78;;;6.20;;
54679;SDS011;40578;53.178;5.846;2023-11-19T10:12:26;33.55;;;5.75;;
54679;SDS011;40578;53.178;5.846;2023-11-19T10:14:53;33.88;;;6.10;;
54679;SDS011;40578;53.178;5.846;2023-11-19T10:17:22;28.17;;;6.20;;
54679;SDS011;40578;53.178;5.846;2023-11-19T10:19:57;39.53;;;6.97;;
54679;SDS011;40578;53.178;5.846;2023-11-19T10:22:23;36.57;;;6.40;;
54679;SDS011;40578;53.178;5.846;2023-11-19T10:24:52;30.58;;;5.28;;
54679;SDS011;40578;53.178;5.846;2023-11-19T10:27:17;31.10;;;6.13;;
54679;SDS011;40578;53.178;5.846;2023-11-19T10:29:47;38.60;;;6.53;;
54679;SDS011;40578;53.178;5.846;2023-11-19T10:32:13;33.67;;;6.40;;
54679;SDS011;40578;53.178;5.846;2023-11-19T10:34:40;35.72;;;6.45;;
54679;SDS011;40578;53.178;5.846;2023-11-19T10:37:06;37.47;;;6.85;;
54679;SDS011;40578;53.178;5.846;2023-11-19T10:39:51;31.02;;;5.97;;
54679;SDS011;40578;53.178;5.846;2023-11-19T10:42:21;29.70;;;5.50;;
54679;SDS011;40578;53.178;5.846;2023-11-19T10:44:47;31.58;;;5.25;;
54679;SDS011;40578;53.178;5.846;2023-11-19T10:47:16;35.07;;;5.00;;
54679;SDS011;40578;53.178;5.846;2023-11-19T10:49:44;33.13;;;5.22;;
54679;SDS011;40578;53.178;5.846;2023-11-19T10:52:14;33.17;;;6.00;;
54679;SDS011;40578;53.178;5.846;2023-11-19T10:54:44;24.42;;;4.88;;
54679;SDS011;40578;53.178;5.846;2023-11-19T10:57:15;22.95;;;5.10;;
54679;SDS011;40578;53.178;5.846;2023-11-19T10:59:47;23.10;;;4.75;;
54679;SDS011;40578;53.178;5.846;2023-11-19T11:02:15;28.10;;;5.15;;
54679;SDS011;40578;53.178;5.846;2023-11-19T11:04:44;22.70;;;4.50;;
54679;SDS011;40578;53.178;5.846;2023-11-19T11:07:12;35.30;;;5.25;;
54679;SDS011;40578;53.178;5.846;2023-11-19T11:09:41;27.55;;;5.50;;
54679;SDS011;40578;53.178;5.846;2023-11-19T11:12:07;31.88;;;7.10;;
54679;SDS011;40578;53.178;5.846;2023-11-19T11:14:35;37.38;;;5.82;;
54679;SDS011;40578;53.178;5.846;2023-11-19T11:17:06;28.80;;;6.20;;
54679;SDS011;40578;53.178;5.846;2023-11-19T11:19:34;38.50;;;4.82;;
54679;SDS011;40578;53.178;5.846;2023-11-19T11:22:01;32.90;;;5.40;;
54679;SDS011;40578;53.178;5.846;2023-11-19T11:27:22;33.65;;;6.47;;
54679;SDS011;40578;53.178;5.846;2023-11-19T11:30:20;32.75;;;5.40;;
54679;SDS011;40578;53.178;5.846;2023-11-19T11:33:26;34.15;;;6.35;;
54679;SDS011;40578;53.178;5.846;2023-11-19T11:36:13;36.08;;;5.68;;
54679;SDS011;40578;53.178;5.846;2023-11-19T11:38:44;27.95;;;6.07;;
54679;SDS011;40578;53.178;5.846;2023-11-19T11:49:04;24.58;;;4.93;;
54679;SDS011;40578;53.178;5.846;2023-11-19T12:02:08;34.75;;;5.88;;
54679;SDS011;40578;53.178;5.846;2023-11-19T12:04:36;31.80;;;5.80;;
54679;SDS011;40578;53.178;5.846;2023-11-19T12:07:12;24.73;;;5.00;;
54679;SDS011;40578;53.178;5.846;2023-11-19T12:09:42;31.20;;;5.40;;
54679;SDS011;40578;53.178;5.846;2023-11-19T12:15:03;30.13;;;5.55;;
54679;SDS011;40578;53.178;5.846;2023-11-19T12:20:03;27.98;;;4.88;;
54679;SDS011;40578;53.178;5.846;2023-11-19T12:22:33;28.17;;;5.15;;
54679;SDS011;40578;53.178;5.846;2023-11-19T12:25:09;31.95;;;5.57;;
54679;SDS011;40578;53.178;5.846;2023-11-19T12:27:39;28.52;;;3.97;;
54679;SDS011;40578;53.178;5.846;2023-11-19T12:30:09;27.92;;;5.53;;
54679;SDS011;40578;53.178;5.846;2023-11-19T12:32:42;31.10;;;5.22;;
54679;SDS011;40578;53.178;5.846;2023-11-19T12:35:09;28.00;;;5.80;;
54679;SDS011;40578;53.178;5.846;2023-11-19T12:37:39;26.23;;;4.50;;
54679;SDS011;40578;53.178;5.846;2023-11-19T12:40:13;24.15;;;5.07;;
54679;SDS011;40578;53.178;5.846;2023-11-19T12:42:40;36.17;;;4.50;;
54679;SDS011;40578;53.178;5.846;2023-11-19T12:45:07;30.17;;;5.70;;
54679;SDS011;40578;53.178;5.846;2023-11-19T12:47:36;32.55;;;6.70;;
54679;SDS011;40578;53.178;5.846;2023-11-19T12:50:02;33.22;;;5.60;;
54679;SDS011;40578;53.178;5.846;2023-11-19T12:52:29;26.33;;;4.75;;
54679;SDS011;40578;53.178;5.846;2023-11-19T12:54:55;34.47;;;5.45;;
54679;SDS011;40578;53.178;5.846;2023-11-19T12:57:20;28.37;;;6.03;;
54679;SDS011;40578;53.178;5.846;2023-11-19T13:00:00;27.23;;;5.43;;
54679;SDS011;40578;53.178;5.846;2023-11-19T13:02:44;27.43;;;4.60;;
54679;SDS011;40578;53.178;5.846;2023-11-19T13:05:32;23.38;;;5.22;;
54679;SDS011;40578;53.178;5.846;2023-11-19T13:08:05;20.63;;;4.30;;
54679;SDS011;40578;53.178;5.846;2023-11-19T13:10:33;29.45;;;5.82;;
54679;SDS011;40578;53.178;5.846;2023-11-19T13:13:17;25.10;;;4.78;;
54679;SDS011;40578;53.178;5.846;2023-11-19T13:15:42;33.08;;;6.30;;
54679;SDS011;40578;53.178;5.846;2023-11-19T13:18:10;28.15;;;5.10;;
54679;SDS011;40578;53.178;5.846;2023-11-19T13:20:36;24.77;;;4.90;;
54679;SDS011;40578;53.178;5.846;2023-11-19T13:23:05;30.53;;;5.43;;
54679;SDS011;40578;53.178;5.846;2023-11-19T13:25:35;30.73;;;4.80;;
54679;SDS011;40578;53.178;5.846;2023-11-19T13:28:01;30.53;;;5.80;;
54679;SDS011;40578;53.178;5.846;2023-11-19T13:30:27;31.23;;;6.05;;
54679;SDS011;40578;53.178;5.846;2023-11-19T13:32:55;32.38;;;5.03;;
54679;SDS011;40578;53.178;5.846;2023-11-19T13:35:21;31.13;;;5.15;;
54679;SDS011;40578;53.178;5.846;2023-11-19T13:37:47;30.67;;;5.20;;
54679;SDS011;40578;53.178;5.846;2023-11-19T13:40:13;26.50;;;4.83;;
54679;SDS011;40578;53.178;5.846;2023-11-19T13:42:43;28.92;;;5.82;;
54679;SDS011;40578;53.178;5.846;2023-11-19T13:45:12;26.60;;;5.03;;
54679;SDS011;40578;53.178;5.846;2023-11-19T13:47:39;40.50;;;5.43;;
54679;SDS011;40578;53.178;5.846;2023-11-19T13:50:07;28.75;;;5.18;;
54679;SDS011;40578;53.178;5.846;2023-11-19T13:52:34;27.50;;;4.03;;
54679;SDS011;40578;53.178;5.846;2023-11-19T13:55:01;30.50;;;5.30;;
54679;SDS011;40578;53.178;5.846;2023-11-19T13:57:29;26.30;;;5.00;;
54679;SDS011;40578;53.178;5.846;2023-11-19T13:59:56;28.77;;;5.47;;
54679;SDS011;40578;53.178;5.846;2023-11-19T14:02:22;27.20;;;5.53;;
54679;SDS011;40578;53.178;5.846;2023-11-19T14:04:48;26.70;;;4.23;;
54679;SDS011;40578;53.178;5.846;2023-11-19T14:07:13;36.80;;;5.90;;
54679;SDS011;40578;53.178;5.846;2023-11-19T14:09:41;29.02;;;5.53;;
54679;SDS011;40578;53.178;5.846;2023-11-19T14:12:07;29.05;;;4.32;;
54679;SDS011;40578;53.178;5.846;2023-11-19T14:14:34;28.98;;;4.50;;
54679;SDS011;40578;53.178;5.846;2023-11-19T14:17:01;32.33;;;5.27;;
54679;SDS011;40578;53.178;5.846;2023-11-19T14:19:28;26.80;;;5.50;;
54679;SDS011;40578;53.178;5.846;2023-11-19T14:21:54;28.87;;;5.20;;
54679;SDS011;40578;53.178;5.846;2023-11-19T14:24:19;26.37;;;4.53;;
54679;SDS011;40578;53.178;5.846;2023-11-19T14:26:46;35.83;;;6.70;;
54679;SDS011;40578;53.178;5.846;2023-11-19T14:29:12;29.75;;;4.35;;
54679;SDS011;40578;53.178;5.846;2023-11-19T14:31:38;36.60;;;5.50;;
54679;SDS011;40578;53.178;5.846;2023-11-19T14:36:30;25.23;;;5.20;;
54679;SDS011;40578;53.178;5.846;2023-11-19T14:38:56;30.97;;;6.27;;
54679;SDS011;40578;53.178;5.846;2023-11-19T14:41:23;24.38;;;4.38;;
54679;SDS011;40578;53.178;5.846;2023-11-19T14:43:49;25.53;;;4.60;;
54679;SDS011;40578;53.178;5.846;2023-11-19T14:46:15;24.00;;;4.27;;
54679;SDS011;40578;53.178;5.846;2023-11-19T14:48:41;31.67;;;5.60;;
54679;SDS011;40578;53.178;5.846;2023-11-19T14:51:07;25.27;;;4.47;;
54679;SDS011;40578;53.178;5.846;2023-11-19T14:53:33;27.63;;;5.45;;
54679;SDS011;40578;53.178;5.846;2023-11-19T14:56:00;27.50;;;4.82;;
54679;SDS011;40578;53.178;5.846;2023-11-19T14:58:27;24.27;;;4.78;;
54679;SDS011;40578;53.178;5.846;2023-11-19T15:00:53;18.47;;;3.63;;
54679;SDS011;40578;53.178;5.846;2023-11-19T15:03:18;28.07;;;4.83;;
54679;SDS011;40578;53.178;5.846;2023-11-19T15:05:44;22.50;;;3.57;;
54679;SDS011;40578;53.178;5.846;2023-11-19T15:10:37;26.05;;;4.75;;
54679;SDS011;40578;53.178;5.846;2023-11-19T15:13:02;27.53;;;4.60;;
54679;SDS011;40578;53.178;5.846;2023-11-19T15:15:29;23.88;;;4.53;;
54679;SDS011;40578;53.178;5.846;2023-11-19T15:17:54;26.27;;;4.83;;
54679;SDS011;40578;53.178;5.846;2023-11-19T15:20:21;25.20;;;5.13;;